Terminal Aerodrome Forecast
Issued by NWS

Home | Current Version | Previous Version | Text Only | Print | Product List | Glossary Off
Versions: 1 2 3 4 5 6 7 8 9 10 11 12

000
FTUS43 KICT 202320
TAFCNU
TAF
KCNU 202320Z 2100/2124 20015G25KT P6SM BKN250
     FM210100 20015KT P6SM BKN250
     FM211200 21009KT P6SM BKN150
     FM211400 29008KT P6SM BKN120
     FM211700 35015G22KT P6SM BKN100=

USA.gov is the U.S. government's official web portal to all federal, state and local government web resources and services.